sensor_id;sensor_type;location;lat;lon;timestamp;P1;durP1;ratioP1;P2;durP2;ratioP2
11588;SDS011;5850;51.360;12.362;2022-09-09T00:04:27;1.90;;;1.53;;
11588;SDS011;5850;51.360;12.362;2022-09-09T00:12:17;2.57;;;1.80;;
11588;SDS011;5850;51.360;12.362;2022-09-09T00:14:51;1.70;;;1.60;;
11588;SDS011;5850;51.360;12.362;2022-09-09T00:17:34;2.17;;;1.50;;
11588;SDS011;5850;51.360;12.362;2022-09-09T00:22:53;1.60;;;1.50;;
11588;SDS011;5850;51.360;12.362;2022-09-09T00:28:31;1.77;;;1.60;;
11588;SDS011;5850;51.360;12.362;2022-09-09T00:31:14;1.70;;;1.60;;
11588;SDS011;5850;51.360;12.362;2022-09-09T00:33:58;2.30;;;1.70;;
11588;SDS011;5850;51.360;12.362;2022-09-09T00:36:37;3.50;;;1.70;;
11588;SDS011;5850;51.360;12.362;2022-09-09T00:39:09;1.80;;;1.70;;
11588;SDS011;5850;51.360;12.362;2022-09-09T00:42:11;2.20;;;1.80;;
11588;SDS011;5850;51.360;12.362;2022-09-09T00:44:55;3.70;;;1.83;;
11588;SDS011;5850;51.360;12.362;2022-09-09T00:48:00;2.17;;;1.60;;
11588;SDS011;5850;51.360;12.362;2022-09-09T00:50:48;2.13;;;1.80;;
11588;SDS011;5850;51.360;12.362;2022-09-09T00:59:28;2.93;;;1.90;;
11588;SDS011;5850;51.360;12.362;2022-09-09T01:01:38;2.97;;;1.73;;
11588;SDS011;5850;51.360;12.362;2022-09-09T01:04:09;3.43;;;1.70;;
11588;SDS011;5850;51.360;12.362;2022-09-09T01:06:44;2.73;;;1.80;;
11588;SDS011;5850;51.360;12.362;2022-09-09T01:09:22;4.53;;;1.90;;
11588;SDS011;5850;51.360;12.362;2022-09-09T01:14:43;2.10;;;1.80;;
11588;SDS011;5850;51.360;12.362;2022-09-09T01:17:27;2.37;;;1.70;;
11588;SDS011;5850;51.360;12.362;2022-09-09T01:20:22;2.73;;;2.20;;
11588;SDS011;5850;51.360;12.362;2022-09-09T01:28:46;4.70;;;1.87;;
11588;SDS011;5850;51.360;12.362;2022-09-09T01:31:23;3.70;;;1.50;;
11588;SDS011;5850;51.360;12.362;2022-09-09T01:33:58;2.07;;;1.67;;
11588;SDS011;5850;51.360;12.362;2022-09-09T01:36:29;2.63;;;1.90;;
11588;SDS011;5850;51.360;12.362;2022-09-09T01:39:10;2.30;;;1.60;;
11588;SDS011;5850;51.360;12.362;2022-09-09T01:41:39;3.97;;;2.00;;
11588;SDS011;5850;51.360;12.362;2022-09-09T01:44:08;2.80;;;1.80;;
11588;SDS011;5850;51.360;12.362;2022-09-09T01:46:37;5.60;;;1.80;;
11588;SDS011;5850;51.360;12.362;2022-09-09T01:49:06;2.47;;;1.77;;
11588;SDS011;5850;51.360;12.362;2022-09-09T01:51:36;2.90;;;1.90;;
11588;SDS011;5850;51.360;12.362;2022-09-09T01:54:07;2.73;;;1.60;;
11588;SDS011;5850;51.360;12.362;2022-09-09T02:02:36;2.30;;;1.90;;
11588;SDS011;5850;51.360;12.362;2022-09-09T02:05:29;3.23;;;1.80;;
11588;SDS011;5850;51.360;12.362;2022-09-09T02:08:09;4.53;;;2.20;;
11588;SDS011;5850;51.360;12.362;2022-09-09T02:13:40;3.27;;;1.73;;
11588;SDS011;5850;51.360;12.362;2022-09-09T02:19:06;2.00;;;1.90;;
11588;SDS011;5850;51.360;12.362;2022-09-09T02:21:39;2.97;;;1.70;;
11588;SDS011;5850;51.360;12.362;2022-09-09T02:24:12;3.63;;;2.30;;
11588;SDS011;5850;51.360;12.362;2022-09-09T02:26:43;2.43;;;1.80;;
11588;SDS011;5850;51.360;12.362;2022-09-09T02:29:16;1.90;;;1.80;;
11588;SDS011;5850;51.360;12.362;2022-09-09T02:31:50;3.60;;;1.70;;
11588;SDS011;5850;51.360;12.362;2022-09-09T02:34:21;1.93;;;1.73;;
11588;SDS011;5850;51.360;12.362;2022-09-09T02:36:54;1.97;;;1.77;;
11588;SDS011;5850;51.360;12.362;2022-09-09T02:39:25;2.30;;;1.57;;
11588;SDS011;5850;51.360;12.362;2022-09-09T02:41:54;3.60;;;1.87;;
11588;SDS011;5850;51.360;12.362;2022-09-09T02:44:22;2.63;;;1.60;;
11588;SDS011;5850;51.360;12.362;2022-09-09T02:52:42;3.13;;;1.63;;
11588;SDS011;5850;51.360;12.362;2022-09-09T02:55:39;2.30;;;1.50;;
11588;SDS011;5850;51.360;12.362;2022-09-09T02:58:31;3.80;;;1.63;;
11588;SDS011;5850;51.360;12.362;2022-09-09T03:01:00;3.73;;;1.77;;
11588;SDS011;5850;51.360;12.362;2022-09-09T03:03:29;1.47;;;1.37;;
11588;SDS011;5850;51.360;12.362;2022-09-09T03:05:57;1.93;;;1.70;;
11588;SDS011;5850;51.360;12.362;2022-09-09T03:08:26;4.50;;;1.83;;
11588;SDS011;5850;51.360;12.362;2022-09-09T03:10:54;3.43;;;1.77;;
11588;SDS011;5850;51.360;12.362;2022-09-09T03:13:25;2.47;;;1.90;;
11588;SDS011;5850;51.360;12.362;2022-09-09T03:15:53;1.63;;;1.50;;
11588;SDS011;5850;51.360;12.362;2022-09-09T03:18:22;1.80;;;1.53;;
11588;SDS011;5850;51.360;12.362;2022-09-09T03:20:51;2.27;;;1.47;;
11588;SDS011;5850;51.360;12.362;2022-09-09T03:23:20;3.50;;;2.00;;
11588;SDS011;5850;51.360;12.362;2022-09-09T03:25:49;2.83;;;1.73;;
11588;SDS011;5850;51.360;12.362;2022-09-09T03:28:18;3.33;;;2.23;;
11588;SDS011;5850;51.360;12.362;2022-09-09T03:30:47;2.27;;;1.80;;
11588;SDS011;5850;51.360;12.362;2022-09-09T03:33:15;3.17;;;1.70;;
11588;SDS011;5850;51.360;12.362;2022-09-09T03:35:45;3.67;;;2.03;;
11588;SDS011;5850;51.360;12.362;2022-09-09T03:38:16;3.13;;;1.63;;
11588;SDS011;5850;51.360;12.362;2022-09-09T03:40:48;2.00;;;1.30;;
11588;SDS011;5850;51.360;12.362;2022-09-09T03:43:23;1.60;;;1.50;;
11588;SDS011;5850;51.360;12.362;2022-09-09T03:45:53;4.80;;;2.13;;
11588;SDS011;5850;51.360;12.362;2022-09-09T03:48:23;4.23;;;1.77;;
11588;SDS011;5850;51.360;12.362;2022-09-09T03:50:54;2.30;;;1.77;;
11588;SDS011;5850;51.360;12.362;2022-09-09T03:53:39;2.27;;;1.50;;
11588;SDS011;5850;51.360;12.362;2022-09-09T03:57:31;3.43;;;1.70;;
11588;SDS011;5850;51.360;12.362;2022-09-09T04:00:41;4.03;;;1.73;;
11588;SDS011;5850;51.360;12.362;2022-09-09T04:03:23;2.00;;;1.70;;
11588;SDS011;5850;51.360;12.362;2022-09-09T04:05:56;3.13;;;1.63;;
11588;SDS011;5850;51.360;12.362;2022-09-09T04:11:31;2.10;;;1.50;;
11588;SDS011;5850;51.360;12.362;2022-09-09T04:14:00;2.27;;;1.80;;
11588;SDS011;5850;51.360;12.362;2022-09-09T04:16:30;4.50;;;1.27;;
11588;SDS011;5850;51.360;12.362;2022-09-09T04:18:58;5.60;;;1.50;;
11588;SDS011;5850;51.360;12.362;2022-09-09T04:21:27;2.27;;;1.80;;
11588;SDS011;5850;51.360;12.362;2022-09-09T04:23:56;4.63;;;1.70;;
11588;SDS011;5850;51.360;12.362;2022-09-09T04:26:24;3.73;;;1.50;;
11588;SDS011;5850;51.360;12.362;2022-09-09T04:28:52;3.60;;;1.80;;
11588;SDS011;5850;51.360;12.362;2022-09-09T04:31:22;3.50;;;1.60;;
11588;SDS011;5850;51.360;12.362;2022-09-09T04:33:50;1.93;;;1.40;;
11588;SDS011;5850;51.360;12.362;2022-09-09T04:36:19;3.53;;;1.60;;
11588;SDS011;5850;51.360;12.362;2022-09-09T04:38:48;2.33;;;1.90;;
11588;SDS011;5850;51.360;12.362;2022-09-09T04:41:16;4.63;;;1.77;;
11588;SDS011;5850;51.360;12.362;2022-09-09T04:44:00;4.07;;;1.70;;
11588;SDS011;5850;51.360;12.362;2022-09-09T04:47:45;3.40;;;1.43;;
11588;SDS011;5850;51.360;12.362;2022-09-09T04:51:09;3.70;;;1.80;;
11588;SDS011;5850;51.360;12.362;2022-09-09T09:54:37;2.27;;;1.23;;
11588;SDS011;5850;51.360;12.362;2022-09-09T09:57:12;2.13;;;1.10;;
11588;SDS011;5850;51.360;12.362;2022-09-09T09:59:43;2.03;;;1.40;;
11588;SDS011;5850;51.360;12.362;2022-09-09T10:02:19;1.83;;;1.10;;
11588;SDS011;5850;51.360;12.362;2022-09-09T10:10:56;3.00;;;1.17;;
11588;SDS011;5850;51.360;12.362;2022-09-09T10:16:27;2.03;;;1.00;;
11588;SDS011;5850;51.360;12.362;2022-09-09T10:24:58;2.03;;;0.97;;
11588;SDS011;5850;51.360;12.362;2022-09-09T10:27:49;2.83;;;1.27;;
11588;SDS011;5850;51.360;12.362;2022-09-09T10:33:55;1.30;;;1.20;;
11588;SDS011;5850;51.360;12.362;2022-09-09T10:36:33;2.13;;;1.20;;
11588;SDS011;5850;51.360;12.362;2022-09-09T10:51:11;1.70;;;1.03;;
11588;SDS011;5850;51.360;12.362;2022-09-09T10:54:14;3.10;;;1.20;;
11588;SDS011;5850;51.360;12.362;2022-09-09T10:57:36;5.27;;;1.00;;
11588;SDS011;5850;51.360;12.362;2022-09-09T11:00:19;3.47;;;1.00;;
11588;SDS011;5850;51.360;12.362;2022-09-09T11:03:00;3.17;;;1.23;;
11588;SDS011;5850;51.360;12.362;2022-09-09T11:05:31;2.63;;;0.97;;
11588;SDS011;5850;51.360;12.362;2022-09-09T11:08:21;3.17;;;1.30;;
11588;SDS011;5850;51.360;12.362;2022-09-09T11:10:58;2.33;;;1.10;;
11588;SDS011;5850;51.360;12.362;2022-09-09T11:13:38;2.73;;;1.10;;
11588;SDS011;5850;51.360;12.362;2022-09-09T11:25:14;3.53;;;1.10;;
11588;SDS011;5850;51.360;12.362;2022-09-09T11:30:46;1.97;;;1.10;;
11588;SDS011;5850;51.360;12.362;2022-09-09T11:36:12;2.20;;;1.23;;
11588;SDS011;5850;51.360;12.362;2022-09-09T11:41:48;1.50;;;0.73;;
11588;SDS011;5850;51.360;12.362;2022-09-09T11:44:18;3.63;;;0.93;;
11588;SDS011;5850;51.360;12.362;2022-09-09T11:46:55;1.63;;;1.10;;
11588;SDS011;5850;51.360;12.362;2022-09-09T11:49:28;4.23;;;1.17;;
11588;SDS011;5850;51.360;12.362;2022-09-09T11:52:36;2.70;;;1.20;;
11588;SDS011;5850;51.360;12.362;2022-09-09T11:57:57;2.90;;;1.10;;
11588;SDS011;5850;51.360;12.362;2022-09-09T12:00:41;2.70;;;1.13;;
11588;SDS011;5850;51.360;12.362;2022-09-09T12:06:20;4.43;;;1.13;;
11588;SDS011;5850;51.360;12.362;2022-09-09T12:09:04;2.60;;;1.17;;
11588;SDS011;5850;51.360;12.362;2022-09-09T12:11:41;2.77;;;0.90;;
11588;SDS011;5850;51.360;12.362;2022-09-09T12:14:19;3.33;;;1.37;;
11588;SDS011;5850;51.360;12.362;2022-09-09T12:19:42;3.50;;;1.43;;
11588;SDS011;5850;51.360;12.362;2022-09-09T12:22:33;3.83;;;1.20;;
11588;SDS011;5850;51.360;12.362;2022-09-09T12:25:29;1.90;;;1.10;;
11588;SDS011;5850;51.360;12.362;2022-09-09T12:31:48;2.70;;;1.07;;
11588;SDS011;5850;51.360;12.362;2022-09-09T12:34:40;3.40;;;1.00;;
11588;SDS011;5850;51.360;12.362;2022-09-09T12:37:34;2.53;;;1.20;;
11588;SDS011;5850;51.360;12.362;2022-09-09T12:43:22;4.43;;;1.27;;
11588;SDS011;5850;51.360;12.362;2022-09-09T12:45:53;4.37;;;1.10;;
11588;SDS011;5850;51.360;12.362;2022-09-09T12:48:34;2.10;;;0.90;;
11588;SDS011;5850;51.360;12.362;2022-09-09T12:51:07;2.40;;;1.00;;
11588;SDS011;5850;51.360;12.362;2022-09-09T12:53:56;1.63;;;1.00;;
11588;SDS011;5850;51.360;12.362;2022-09-09T12:56:28;1.83;;;1.03;;
11588;SDS011;5850;51.360;12.362;2022-09-09T12:58:58;2.33;;;0.97;;
11588;SDS011;5850;51.360;12.362;2022-09-09T13:01:28;2.87;;;1.07;;
11588;SDS011;5850;51.360;12.362;2022-09-09T13:03:59;3.00;;;1.13;;
11588;SDS011;5850;51.360;12.362;2022-09-09T13:06:31;2.50;;;1.27;;
11588;SDS011;5850;51.360;12.362;2022-09-09T13:09:02;3.33;;;1.17;;
11588;SDS011;5850;51.360;12.362;2022-09-09T13:14:24;1.97;;;0.80;;
11588;SDS011;5850;51.360;12.362;2022-09-09T13:16:59;4.30;;;1.00;;
11588;SDS011;5850;51.360;12.362;2022-09-09T13:19:37;2.13;;;1.00;;
11588;SDS011;5850;51.360;12.362;2022-09-09T13:22:19;2.37;;;1.03;;
11588;SDS011;5850;51.360;12.362;2022-09-09T13:24:59;3.73;;;1.20;;
11588;SDS011;5850;51.360;12.362;2022-09-09T13:27:35;3.03;;;1.03;;
11588;SDS011;5850;51.360;12.362;2022-09-09T13:30:22;3.80;;;1.00;;
11588;SDS011;5850;51.360;12.362;2022-09-09T13:33:01;2.23;;;0.90;;
11588;SDS011;5850;51.360;12.362;2022-09-09T13:35:55;2.00;;;0.77;;
11588;SDS011;5850;51.360;12.362;2022-09-09T13:38:27;1.97;;;0.90;;
11588;SDS011;5850;51.360;12.362;2022-09-09T13:43:30;2.23;;;1.10;;
11588;SDS011;5850;51.360;12.362;2022-09-09T13:46:04;2.80;;;1.27;;
11588;SDS011;5850;51.360;12.362;2022-09-09T13:48:58;3.90;;;0.83;;
11588;SDS011;5850;51.360;12.362;2022-09-09T13:51:40;2.03;;;1.00;;
11588;SDS011;5850;51.360;12.362;2022-09-09T13:54:14;3.50;;;0.73;;
11588;SDS011;5850;51.360;12.362;2022-09-09T13:56:44;2.47;;;1.00;;
11588;SDS011;5850;51.360;12.362;2022-09-09T13:59:17;2.73;;;0.90;;
11588;SDS011;5850;51.360;12.362;2022-09-09T14:01:47;3.13;;;0.97;;
11588;SDS011;5850;51.360;12.362;2022-09-09T14:04:18;3.87;;;1.00;;
11588;SDS011;5850;51.360;12.362;2022-09-09T14:06:47;3.77;;;1.10;;
11588;SDS011;5850;51.360;12.362;2022-09-09T14:09:17;2.20;;;0.80;;
11588;SDS011;5850;51.360;12.362;2022-09-09T14:11:45;2.53;;;0.90;;
11588;SDS011;5850;51.360;12.362;2022-09-09T14:14:14;1.37;;;0.70;;
11588;SDS011;5850;51.360;12.362;2022-09-09T14:16:42;2.23;;;0.83;;
11588;SDS011;5850;51.360;12.362;2022-09-09T14:19:11;2.33;;;0.90;;
11588;SDS011;5850;51.360;12.362;2022-09-09T14:21:40;2.57;;;0.83;;
11588;SDS011;5850;51.360;12.362;2022-09-09T14:24:08;4.00;;;1.00;;
11588;SDS011;5850;51.360;12.362;2022-09-09T14:26:38;3.07;;;1.00;;
11588;SDS011;5850;51.360;12.362;2022-09-09T14:29:06;1.23;;;0.70;;
11588;SDS011;5850;51.360;12.362;2022-09-09T14:31:35;4.00;;;1.07;;
11588;SDS011;5850;51.360;12.362;2022-09-09T14:34:11;1.63;;;0.80;;
11588;SDS011;5850;51.360;12.362;2022-09-09T14:36:40;2.13;;;1.10;;
11588;SDS011;5850;51.360;12.362;2022-09-09T14:39:10;1.90;;;0.87;;
11588;SDS011;5850;51.360;12.362;2022-09-09T14:41:39;1.30;;;0.73;;
11588;SDS011;5850;51.360;12.362;2022-09-09T14:44:10;1.67;;;0.67;;
11588;SDS011;5850;51.360;12.362;2022-09-09T14:46:44;1.00;;;0.70;;
11588;SDS011;5850;51.360;12.362;2022-09-09T14:49:13;3.73;;;1.07;;
11588;SDS011;5850;51.360;12.362;2022-09-09T14:51:41;1.40;;;0.90;;
11588;SDS011;5850;51.360;12.362;2022-09-09T14:54:10;2.13;;;0.83;;
11588;SDS011;5850;51.360;12.362;2022-09-09T14:56:38;3.60;;;1.00;;
11588;SDS011;5850;51.360;12.362;2022-09-09T14:59:06;1.43;;;0.87;;
11588;SDS011;5850;51.360;12.362;2022-09-09T15:01:35;2.37;;;0.80;;
11588;SDS011;5850;51.360;12.362;2022-09-09T15:04:04;3.40;;;0.87;;
11588;SDS011;5850;51.360;12.362;2022-09-09T15:06:33;1.40;;;0.80;;
11588;SDS011;5850;51.360;12.362;2022-09-09T15:09:05;2.07;;;0.83;;
11588;SDS011;5850;51.360;12.362;2022-09-09T15:11:34;1.40;;;0.83;;
11588;SDS011;5850;51.360;12.362;2022-09-09T15:14:04;1.97;;;0.90;;
11588;SDS011;5850;51.360;12.362;2022-09-09T15:16:35;3.07;;;1.00;;
11588;SDS011;5850;51.360;12.362;2022-09-09T15:19:04;2.47;;;1.03;;
11588;SDS011;5850;51.360;12.362;2022-09-09T15:21:34;1.60;;;0.83;;
11588;SDS011;5850;51.360;12.362;2022-09-09T15:24:04;2.00;;;1.00;;
11588;SDS011;5850;51.360;12.362;2022-09-09T15:26:34;1.80;;;1.10;;
11588;SDS011;5850;51.360;12.362;2022-09-09T15:29:05;2.23;;;1.00;;
11588;SDS011;5850;51.360;12.362;2022-09-09T15:31:34;2.03;;;0.90;;
11588;SDS011;5850;51.360;12.362;2022-09-09T15:34:04;2.07;;;1.20;;
11588;SDS011;5850;51.360;12.362;2022-09-09T15:36:38;1.80;;;0.90;;
11588;SDS011;5850;51.360;12.362;2022-09-09T15:39:10;2.37;;;0.87;;
11588;SDS011;5850;51.360;12.362;2022-09-09T15:41:42;1.87;;;0.70;;
11588;SDS011;5850;51.360;12.362;2022-09-09T15:44:14;2.17;;;0.70;;
11588;SDS011;5850;51.360;12.362;2022-09-09T15:46:51;3.40;;;0.73;;
11588;SDS011;5850;51.360;12.362;2022-09-09T15:49:24;3.23;;;1.13;;
11588;SDS011;5850;51.360;12.362;2022-09-09T15:52:02;2.70;;;0.90;;
11588;SDS011;5850;51.360;12.362;2022-09-09T15:54:31;3.27;;;1.63;;
11588;SDS011;5850;51.360;12.362;2022-09-09T15:57:04;2.50;;;0.90;;
11588;SDS011;5850;51.360;12.362;2022-09-09T15:59:43;3.23;;;1.30;;
11588;SDS011;5850;51.360;12.362;2022-09-09T16:07:03;1.07;;;0.87;;
11588;SDS011;5850;51.360;12.362;2022-09-09T16:44:23;2.03;;;1.03;;
11588;SDS011;5850;51.360;12.362;2022-09-09T17:01:15;4.23;;;1.10;;
11588;SDS011;5850;51.360;12.362;2022-09-09T17:03:46;1.50;;;0.83;;
11588;SDS011;5850;51.360;12.362;2022-09-09T17:06:15;3.03;;;1.30;;
11588;SDS011;5850;51.360;12.362;2022-09-09T17:08:43;3.17;;;1.20;;
11588;SDS011;5850;51.360;12.362;2022-09-09T17:11:13;2.10;;;0.97;;
11588;SDS011;5850;51.360;12.362;2022-09-09T17:13:46;1.87;;;1.20;;
11588;SDS011;5850;51.360;12.362;2022-09-09T17:16:18;2.60;;;1.27;;
11588;SDS011;5850;51.360;12.362;2022-09-09T17:18:50;2.50;;;1.10;;
11588;SDS011;5850;51.360;12.362;2022-09-09T17:21:22;2.63;;;1.20;;
11588;SDS011;5850;51.360;12.362;2022-09-09T17:23:53;3.70;;;1.43;;
11588;SDS011;5850;51.360;12.362;2022-09-09T17:26:24;5.00;;;1.47;;
11588;SDS011;5850;51.360;12.362;2022-09-09T17:28:56;3.07;;;1.40;;
11588;SDS011;5850;51.360;12.362;2022-09-09T17:31:30;1.93;;;1.33;;
11588;SDS011;5850;51.360;12.362;2022-09-09T17:34:00;2.47;;;1.57;;
11588;SDS011;5850;51.360;12.362;2022-09-09T17:36:35;1.83;;;1.40;;
11588;SDS011;5850;51.360;12.362;2022-09-09T17:39:05;2.07;;;1.23;;
11588;SDS011;5850;51.360;12.362;2022-09-09T17:41:35;2.70;;;1.40;;
11588;SDS011;5850;51.360;12.362;2022-09-09T17:44:06;1.97;;;1.10;;
11588;SDS011;5850;51.360;12.362;2022-09-09T17:46:40;2.40;;;1.10;;
11588;SDS011;5850;51.360;12.362;2022-09-09T17:49:12;1.07;;;1.00;;
11588;SDS011;5850;51.360;12.362;2022-09-09T17:51:44;1.27;;;0.93;;
11588;SDS011;5850;51.360;12.362;2022-09-09T17:54:14;2.30;;;1.00;;
11588;SDS011;5850;51.360;12.362;2022-09-09T17:56:47;3.33;;;1.30;;
11588;SDS011;5850;51.360;12.362;2022-09-09T17:59:16;1.00;;;0.90;;
11588;SDS011;5850;51.360;12.362;2022-09-09T18:01:46;1.77;;;1.03;;
11588;SDS011;5850;51.360;12.362;2022-09-09T18:04:17;1.07;;;0.97;;
11588;SDS011;5850;51.360;12.362;2022-09-09T18:06:47;2.07;;;1.20;;
11588;SDS011;5850;51.360;12.362;2022-09-09T18:09:34;1.83;;;1.30;;
11588;SDS011;5850;51.360;12.362;2022-09-09T18:12:05;1.03;;;1.00;;
11588;SDS011;5850;51.360;12.362;2022-09-09T18:14:34;2.50;;;1.20;;
11588;SDS011;5850;51.360;12.362;2022-09-09T18:17:03;1.57;;;0.70;;
11588;SDS011;5850;51.360;12.362;2022-09-09T18:19:31;2.40;;;0.90;;
11588;SDS011;5850;51.360;12.362;2022-09-09T18:22:02;1.10;;;0.90;;
11588;SDS011;5850;51.360;12.362;2022-09-09T18:24:32;2.03;;;1.00;;
11588;SDS011;5850;51.360;12.362;2022-09-09T18:27:01;2.90;;;1.97;;
11588;SDS011;5850;51.360;12.362;2022-09-09T18:29:30;3.77;;;2.10;;
11588;SDS011;5850;51.360;12.362;2022-09-09T18:31:59;2.57;;;1.77;;
11588;SDS011;5850;51.360;12.362;2022-09-09T18:34:28;2.20;;;1.83;;
11588;SDS011;5850;51.360;12.362;2022-09-09T18:36:57;2.13;;;1.20;;
11588;SDS011;5850;51.360;12.362;2022-09-09T18:39:26;2.40;;;1.30;;
11588;SDS011;5850;51.360;12.362;2022-09-09T18:41:57;1.93;;;1.30;;
11588;SDS011;5850;51.360;12.362;2022-09-09T18:44:29;1.30;;;1.10;;
11588;SDS011;5850;51.360;12.362;2022-09-09T18:47:00;2.93;;;1.90;;
11588;SDS011;5850;51.360;12.362;2022-09-09T18:49:29;3.53;;;1.80;;
11588;SDS011;5850;51.360;12.362;2022-09-09T18:51:59;2.40;;;1.43;;
11588;SDS011;5850;51.360;12.362;2022-09-09T18:54:29;3.73;;;1.50;;
11588;SDS011;5850;51.360;12.362;2022-09-09T18:57:00;1.87;;;1.27;;
11588;SDS011;5850;51.360;12.362;2022-09-09T18:59:29;2.77;;;1.33;;
11588;SDS011;5850;51.360;12.362;2022-09-09T19:01:58;2.10;;;1.60;;
11588;SDS011;5850;51.360;12.362;2022-09-09T19:04:27;2.43;;;1.20;;
11588;SDS011;5850;51.360;12.362;2022-09-09T19:06:56;2.70;;;1.37;;
11588;SDS011;5850;51.360;12.362;2022-09-09T19:09:26;2.50;;;1.20;;
11588;SDS011;5850;51.360;12.362;2022-09-09T19:11:58;2.30;;;1.43;;
11588;SDS011;5850;51.360;12.362;2022-09-09T19:14:27;3.27;;;1.30;;
11588;SDS011;5850;51.360;12.362;2022-09-09T19:16:57;2.43;;;1.47;;
11588;SDS011;5850;51.360;12.362;2022-09-09T19:19:29;3.30;;;1.50;;
11588;SDS011;5850;51.360;12.362;2022-09-09T19:22:00;2.23;;;1.70;;
11588;SDS011;5850;51.360;12.362;2022-09-09T19:24:34;2.03;;;1.40;;
11588;SDS011;5850;51.360;12.362;2022-09-09T19:27:03;4.30;;;1.60;;
11588;SDS011;5850;51.360;12.362;2022-09-09T19:29:34;2.47;;;1.30;;
11588;SDS011;5850;51.360;12.362;2022-09-09T19:32:10;3.10;;;1.77;;
11588;SDS011;5850;51.360;12.362;2022-09-09T19:34:59;1.93;;;1.50;;
11588;SDS011;5850;51.360;12.362;2022-09-09T19:37:27;3.33;;;1.67;;
11588;SDS011;5850;51.360;12.362;2022-09-09T19:39:57;2.33;;;1.40;;
11588;SDS011;5850;51.360;12.362;2022-09-09T19:42:26;1.83;;;1.53;;
11588;SDS011;5850;51.360;12.362;2022-09-09T19:44:56;3.53;;;1.70;;
11588;SDS011;5850;51.360;12.362;2022-09-09T19:47:42;2.33;;;1.77;;
11588;SDS011;5850;51.360;12.362;2022-09-09T19:50:10;1.73;;;1.20;;
11588;SDS011;5850;51.360;12.362;2022-09-09T19:52:39;3.37;;;2.60;;
11588;SDS011;5850;51.360;12.362;2022-09-09T19:55:08;2.27;;;1.90;;
11588;SDS011;5850;51.360;12.362;2022-09-09T19:57:36;3.10;;;1.70;;
11588;SDS011;5850;51.360;12.362;2022-09-09T20:00:05;2.63;;;1.80;;
11588;SDS011;5850;51.360;12.362;2022-09-09T20:02:35;1.70;;;1.23;;
11588;SDS011;5850;51.360;12.362;2022-09-09T20:05:04;3.87;;;1.80;;
11588;SDS011;5850;51.360;12.362;2022-09-09T20:07:33;3.57;;;1.80;;
11588;SDS011;5850;51.360;12.362;2022-09-09T20:10:02;3.23;;;1.80;;
11588;SDS011;5850;51.360;12.362;2022-09-09T20:12:30;4.67;;;1.80;;
11588;SDS011;5850;51.360;12.362;2022-09-09T20:14:59;3.57;;;1.30;;
11588;SDS011;5850;51.360;12.362;2022-09-09T20:17:28;3.47;;;1.80;;
11588;SDS011;5850;51.360;12.362;2022-09-09T20:19:57;2.27;;;1.70;;
11588;SDS011;5850;51.360;12.362;2022-09-09T20:22:25;3.93;;;1.30;;
11588;SDS011;5850;51.360;12.362;2022-09-09T20:24:54;2.30;;;1.50;;
11588;SDS011;5850;51.360;12.362;2022-09-09T20:27:22;3.37;;;1.60;;
11588;SDS011;5850;51.360;12.362;2022-09-09T20:29:50;1.47;;;1.37;;
11588;SDS011;5850;51.360;12.362;2022-09-09T20:32:19;1.93;;;1.30;;
11588;SDS011;5850;51.360;12.362;2022-09-09T20:34:47;2.53;;;1.53;;
11588;SDS011;5850;51.360;12.362;2022-09-09T20:37:17;2.43;;;1.80;;
11588;SDS011;5850;51.360;12.362;2022-09-09T20:39:46;3.43;;;1.63;;
11588;SDS011;5850;51.360;12.362;2022-09-09T20:42:14;6.90;;;1.87;;
11588;SDS011;5850;51.360;12.362;2022-09-09T20:44:43;2.47;;;1.77;;
11588;SDS011;5850;51.360;12.362;2022-09-09T20:47:11;2.20;;;1.40;;
11588;SDS011;5850;51.360;12.362;2022-09-09T20:49:40;4.70;;;2.13;;
11588;SDS011;5850;51.360;12.362;2022-09-09T20:52:09;2.47;;;1.60;;
11588;SDS011;5850;51.360;12.362;2022-09-09T20:54:38;2.90;;;1.50;;
11588;SDS011;5850;51.360;12.362;2022-09-09T20:57:07;2.90;;;1.43;;
11588;SDS011;5850;51.360;12.362;2022-09-09T20:59:36;3.33;;;1.60;;
11588;SDS011;5850;51.360;12.362;2022-09-09T21:02:04;3.57;;;1.67;;
11588;SDS011;5850;51.360;12.362;2022-09-09T21:04:33;2.57;;;1.60;;
11588;SDS011;5850;51.360;12.362;2022-09-09T21:07:03;2.83;;;1.60;;
11588;SDS011;5850;51.360;12.362;2022-09-09T21:09:32;3.70;;;2.00;;
11588;SDS011;5850;51.360;12.362;2022-09-09T21:12:01;2.07;;;1.83;;
11588;SDS011;5850;51.360;12.362;2022-09-09T21:14:30;4.10;;;1.93;;
11588;SDS011;5850;51.360;12.362;2022-09-09T21:16:58;2.27;;;1.50;;
11588;SDS011;5850;51.360;12.362;2022-09-09T21:19:28;2.90;;;1.70;;
11588;SDS011;5850;51.360;12.362;2022-09-09T21:21:56;2.37;;;1.40;;
11588;SDS011;5850;51.360;12.362;2022-09-09T21:24:25;2.33;;;1.60;;
11588;SDS011;5850;51.360;12.362;2022-09-09T21:26:54;1.50;;;1.40;;
11588;SDS011;5850;51.360;12.362;2022-09-09T21:29:22;3.10;;;1.17;;
11588;SDS011;5850;51.360;12.362;2022-09-09T21:31:51;1.93;;;1.40;;
11588;SDS011;5850;51.360;12.362;2022-09-09T21:34:20;1.57;;;1.30;;
11588;SDS011;5850;51.360;12.362;2022-09-09T21:36:49;2.23;;;1.53;;
11588;SDS011;5850;51.360;12.362;2022-09-09T21:39:17;1.47;;;1.30;;
11588;SDS011;5850;51.360;12.362;2022-09-09T21:41:46;2.27;;;1.40;;
11588;SDS011;5850;51.360;12.362;2022-09-09T21:44:14;1.97;;;1.50;;
11588;SDS011;5850;51.360;12.362;2022-09-09T21:46:44;1.77;;;1.30;;
11588;SDS011;5850;51.360;12.362;2022-09-09T21:49:12;1.97;;;1.50;;
11588;SDS011;5850;51.360;12.362;2022-09-09T21:51:41;1.60;;;1.50;;
11588;SDS011;5850;51.360;12.362;2022-09-09T21:54:09;1.90;;;1.20;;
11588;SDS011;5850;51.360;12.362;2022-09-09T21:56:37;7.20;;;3.20;;
11588;SDS011;5850;51.360;12.362;2022-09-09T21:59:06;2.67;;;1.53;;
11588;SDS011;5850;51.360;12.362;2022-09-09T22:01:34;3.30;;;1.40;;
11588;SDS011;5850;51.360;12.362;2022-09-09T22:04:03;2.00;;;1.40;;
11588;SDS011;5850;51.360;12.362;2022-09-09T22:06:31;2.50;;;1.43;;
11588;SDS011;5850;51.360;12.362;2022-09-09T22:09:00;3.67;;;1.30;;
11588;SDS011;5850;51.360;12.362;2022-09-09T22:11:28;3.13;;;1.80;;
11588;SDS011;5850;51.360;12.362;2022-09-09T22:13:57;2.43;;;1.20;;
11588;SDS011;5850;51.360;12.362;2022-09-09T22:16:26;1.50;;;1.37;;
11588;SDS011;5850;51.360;12.362;2022-09-09T22:18:55;2.70;;;1.37;;
11588;SDS011;5850;51.360;12.362;2022-09-09T22:21:26;1.73;;;1.20;;
11588;SDS011;5850;51.360;12.362;2022-09-09T22:23:57;1.20;;;1.03;;
11588;SDS011;5850;51.360;12.362;2022-09-09T22:26:32;4.50;;;1.50;;
11588;SDS011;5850;51.360;12.362;2022-09-09T22:29:03;2.90;;;1.83;;
11588;SDS011;5850;51.360;12.362;2022-09-09T22:31:32;1.60;;;1.20;;
11588;SDS011;5850;51.360;12.362;2022-09-09T22:34:02;1.30;;;1.20;;
11588;SDS011;5850;51.360;12.362;2022-09-09T22:36:31;1.93;;;1.43;;
11588;SDS011;5850;51.360;12.362;2022-09-09T22:39:00;1.50;;;1.33;;
11588;SDS011;5850;51.360;12.362;2022-09-09T22:41:28;1.60;;;1.27;;
11588;SDS011;5850;51.360;12.362;2022-09-09T22:43:57;2.90;;;1.90;;
11588;SDS011;5850;51.360;12.362;2022-09-09T22:46:25;2.27;;;1.20;;
11588;SDS011;5850;51.360;12.362;2022-09-09T22:48:54;2.63;;;1.40;;
11588;SDS011;5850;51.360;12.362;2022-09-09T22:51:24;1.60;;;1.30;;
11588;SDS011;5850;51.360;12.362;2022-09-09T22:53:52;2.63;;;1.50;;
11588;SDS011;5850;51.360;12.362;2022-09-09T22:56:22;1.97;;;1.50;;
11588;SDS011;5850;51.360;12.362;2022-09-09T22:58:54;2.93;;;1.33;;
11588;SDS011;5850;51.360;12.362;2022-09-09T23:01:24;2.03;;;1.50;;
11588;SDS011;5850;51.360;12.362;2022-09-09T23:03:54;3.90;;;1.60;;
11588;SDS011;5850;51.360;12.362;2022-09-09T23:06:25;2.20;;;1.27;;
11588;SDS011;5850;51.360;12.362;2022-09-09T23:08:55;2.07;;;1.30;;
11588;SDS011;5850;51.360;12.362;2022-09-09T23:11:27;2.70;;;1.13;;
11588;SDS011;5850;51.360;12.362;2022-09-09T23:13:58;2.20;;;1.40;;
11588;SDS011;5850;51.360;12.362;2022-09-09T23:16:29;1.97;;;1.30;;
11588;SDS011;5850;51.360;12.362;2022-09-09T23:19:02;1.70;;;1.20;;